sensor_id;sensor_type;location;lat;lon;timestamp;temperature;humidity
71295;DHT22;59080;31.686;73.862;2022-07-29T14:01:19;30.00;88.70
71295;DHT22;59080;31.686;73.862;2022-07-29T14:16:14;29.90;89.20
71295;DHT22;59080;31.686;73.862;2022-07-29T14:34:18;29.80;89.30
71295;DHT22;59080;31.686;73.862;2022-07-29T14:37:22;29.80;89.20
71295;DHT22;59080;31.686;73.862;2022-07-29T14:41:07;29.90;89.50
71295;DHT22;59080;31.686;73.862;2022-07-29T14:44:03;30.10;88.80
71295;DHT22;59080;31.686;73.862;2022-07-29T14:46:35;30.10;88.70
71295;DHT22;59080;31.686;73.862;2022-07-29T14:49:13;30.10;88.60
71295;DHT22;59080;31.686;73.862;2022-07-29T14:55:36;29.90;88.30
71295;DHT22;59080;31.686;73.862;2022-07-29T14:59:09;29.80;89.00
71295;DHT22;59080;31.686;73.862;2022-07-29T15:02:33;29.70;89.50
71295;DHT22;59080;31.686;73.862;2022-07-29T15:12:36;29.90;88.90
71295;DHT22;59080;31.686;73.862;2022-07-29T15:19:04;30.00;88.90
71295;DHT22;59080;31.686;73.862;2022-07-29T15:22:03;30.00;88.90
71295;DHT22;59080;31.686;73.862;2022-07-29T15:25:16;30.00;88.90
71295;DHT22;59080;31.686;73.862;2022-07-29T15:52:14;30.00;88.50
71295;DHT22;59080;31.686;73.862;2022-07-29T15:56:16;29.90;88.60
71295;DHT22;59080;31.686;73.862;2022-07-29T16:03:12;29.90;88.70
71295;DHT22;59080;31.686;73.862;2022-07-29T16:06:06;29.90;88.80
71295;DHT22;59080;31.686;73.862;2022-07-29T16:20:30;29.80;89.00
71295;DHT22;59080;31.686;73.862;2022-07-29T16:27:53;29.80;89.10
71295;DHT22;59080;31.686;73.862;2022-07-29T16:41:34;29.80;89.10
71295;DHT22;59080;31.686;73.862;2022-07-29T16:44:02;29.70;89.20
71295;DHT22;59080;31.686;73.862;2022-07-29T16:46:32;29.70;89.30
71295;DHT22;59080;31.686;73.862;2022-07-29T16:49:07;29.70;89.40
71295;DHT22;59080;31.686;73.862;2022-07-29T16:51:35;29.70;89.50
71295;DHT22;59080;31.686;73.862;2022-07-29T16:54:03;29.70;89.50
71295;DHT22;59080;31.686;73.862;2022-07-29T16:56:32;29.70;89.50
71295;DHT22;59080;31.686;73.862;2022-07-29T16:59:03;29.70;89.60
71295;DHT22;59080;31.686;73.862;2022-07-29T17:01:32;29.60;89.60
71295;DHT22;59080;31.686;73.862;2022-07-29T17:04:00;29.70;89.60
71295;DHT22;59080;31.686;73.862;2022-07-29T17:06:40;29.70;89.60
71295;DHT22;59080;31.686;73.862;2022-07-29T17:09:11;29.60;89.60
71295;DHT22;59080;31.686;73.862;2022-07-29T17:11:43;29.60;89.60
71295;DHT22;59080;31.686;73.862;2022-07-29T17:14:11;29.50;89.70
71295;DHT22;59080;31.686;73.862;2022-07-29T17:16:40;29.50;89.80
71295;DHT22;59080;31.686;73.862;2022-07-29T17:19:18;29.50;89.90
71295;DHT22;59080;31.686;73.862;2022-07-29T17:22:11;29.50;89.90
71295;DHT22;59080;31.686;73.862;2022-07-29T17:24:40;29.50;89.90
71295;DHT22;59080;31.686;73.862;2022-07-29T17:27:09;29.50;89.90
71295;DHT22;59080;31.686;73.862;2022-07-29T17:29:39;29.50;90.00
71295;DHT22;59080;31.686;73.862;2022-07-29T17:32:07;29.50;89.90
71295;DHT22;59080;31.686;73.862;2022-07-29T17:34:37;29.60;89.90
71295;DHT22;59080;31.686;73.862;2022-07-29T17:37:07;29.50;89.90
71295;DHT22;59080;31.686;73.862;2022-07-29T17:39:51;29.50;90.00
71295;DHT22;59080;31.686;73.862;2022-07-29T17:42:19;29.50;90.00
71295;DHT22;59080;31.686;73.862;2022-07-29T17:44:48;29.50;89.90
71295;DHT22;59080;31.686;73.862;2022-07-29T17:47:18;29.50;89.90
71295;DHT22;59080;31.686;73.862;2022-07-29T17:49:46;29.50;89.80
71295;DHT22;59080;31.686;73.862;2022-07-29T17:52:14;29.50;89.80
71295;DHT22;59080;31.686;73.862;2022-07-29T17:54:45;29.50;89.70
71295;DHT22;59080;31.686;73.862;2022-07-29T17:57:15;29.50;89.70
71295;DHT22;59080;31.686;73.862;2022-07-29T17:59:44;29.40;89.70
71295;DHT22;59080;31.686;73.862;2022-07-29T18:02:12;29.40;89.70
71295;DHT22;59080;31.686;73.862;2022-07-29T18:04:41;29.40;89.70
71295;DHT22;59080;31.686;73.862;2022-07-29T18:07:09;29.40;89.70
71295;DHT22;59080;31.686;73.862;2022-07-29T18:09:38;29.40;89.70
71295;DHT22;59080;31.686;73.862;2022-07-29T18:12:07;29.40;89.60
71295;DHT22;59080;31.686;73.862;2022-07-29T18:14:36;29.40;89.60
71295;DHT22;59080;31.686;73.862;2022-07-29T18:17:05;29.40;89.60
71295;DHT22;59080;31.686;73.862;2022-07-29T18:19:37;29.40;89.60
71295;DHT22;59080;31.686;73.862;2022-07-29T18:22:06;29.40;89.50
71295;DHT22;59080;31.686;73.862;2022-07-29T18:24:37;29.40;89.60
71295;DHT22;59080;31.686;73.862;2022-07-29T18:27:05;29.40;89.60
71295;DHT22;59080;31.686;73.862;2022-07-29T18:29:33;29.30;89.60
71295;DHT22;59080;31.686;73.862;2022-07-29T18:32:02;29.30;89.50
71295;DHT22;59080;31.686;73.862;2022-07-29T18:34:30;29.30;89.50
71295;DHT22;59080;31.686;73.862;2022-07-29T18:36:58;29.30;89.50
71295;DHT22;59080;31.686;73.862;2022-07-29T18:39:27;29.30;89.50
71295;DHT22;59080;31.686;73.862;2022-07-29T18:41:55;29.30;89.50
71295;DHT22;59080;31.686;73.862;2022-07-29T18:44:24;29.30;89.30
71295;DHT22;59080;31.686;73.862;2022-07-29T18:46:52;29.30;89.40
71295;DHT22;59080;31.686;73.862;2022-07-29T18:49:23;29.30;89.40
71295;DHT22;59080;31.686;73.862;2022-07-29T18:51:51;29.30;89.50
71295;DHT22;59080;31.686;73.862;2022-07-29T18:54:20;29.30;89.40
71295;DHT22;59080;31.686;73.862;2022-07-29T18:56:48;29.30;89.40
71295;DHT22;59080;31.686;73.862;2022-07-29T18:59:16;29.30;89.40
71295;DHT22;59080;31.686;73.862;2022-07-29T19:01:48;29.30;89.30
71295;DHT22;59080;31.686;73.862;2022-07-29T19:04:17;29.30;89.50
71295;DHT22;59080;31.686;73.862;2022-07-29T19:06:45;29.30;89.50
71295;DHT22;59080;31.686;73.862;2022-07-29T19:09:14;29.30;89.50
71295;DHT22;59080;31.686;73.862;2022-07-29T19:11:43;29.30;89.50
71295;DHT22;59080;31.686;73.862;2022-07-29T19:14:11;29.30;89.50
71295;DHT22;59080;31.686;73.862;2022-07-29T19:16:40;29.30;89.60
71295;DHT22;59080;31.686;73.862;2022-07-29T19:19:07;29.30;89.60
71295;DHT22;59080;31.686;73.862;2022-07-29T19:21:36;29.30;89.50
71295;DHT22;59080;31.686;73.862;2022-07-29T19:24:05;29.30;89.50
71295;DHT22;59080;31.686;73.862;2022-07-29T19:26:34;29.30;89.50
71295;DHT22;59080;31.686;73.862;2022-07-29T19:29:05;29.20;89.50
71295;DHT22;59080;31.686;73.862;2022-07-29T19:31:32;29.30;89.60
71295;DHT22;59080;31.686;73.862;2022-07-29T19:34:02;29.20;89.70
71295;DHT22;59080;31.686;73.862;2022-07-29T19:36:31;29.20;89.70
71295;DHT22;59080;31.686;73.862;2022-07-29T19:39:00;29.20;89.70
71295;DHT22;59080;31.686;73.862;2022-07-29T19:41:28;29.20;89.70
71295;DHT22;59080;31.686;73.862;2022-07-29T19:43:56;29.30;89.70
71295;DHT22;59080;31.686;73.862;2022-07-29T19:46:26;29.30;89.70
71295;DHT22;59080;31.686;73.862;2022-07-29T19:48:55;29.30;89.70
71295;DHT22;59080;31.686;73.862;2022-07-29T19:51:23;29.30;89.70
71295;DHT22;59080;31.686;73.862;2022-07-29T19:53:51;29.20;89.70
71295;DHT22;59080;31.686;73.862;2022-07-29T19:56:19;29.30;89.70
71295;DHT22;59080;31.686;73.862;2022-07-29T19:58:47;29.20;89.70
71295;DHT22;59080;31.686;73.862;2022-07-29T20:01:15;29.20;89.80
71295;DHT22;59080;31.686;73.862;2022-07-29T20:03:45;29.20;89.80
71295;DHT22;59080;31.686;73.862;2022-07-29T20:06:13;29.20;89.80
71295;DHT22;59080;31.686;73.862;2022-07-29T20:08:41;29.20;89.90
71295;DHT22;59080;31.686;73.862;2022-07-29T20:11:09;29.30;89.90
71295;DHT22;59080;31.686;73.862;2022-07-29T20:13:37;29.20;89.90
71295;DHT22;59080;31.686;73.862;2022-07-29T20:16:05;29.20;89.80
71295;DHT22;59080;31.686;73.862;2022-07-29T20:18:34;29.20;89.80
71295;DHT22;59080;31.686;73.862;2022-07-29T20:21:02;29.20;89.90
71295;DHT22;59080;31.686;73.862;2022-07-29T20:23:30;29.20;89.90
71295;DHT22;59080;31.686;73.862;2022-07-29T20:25:58;29.20;89.90
71295;DHT22;59080;31.686;73.862;2022-07-29T20:28:26;29.20;89.90
71295;DHT22;59080;31.686;73.862;2022-07-29T20:30:54;29.20;89.80
71295;DHT22;59080;31.686;73.862;2022-07-29T20:33:22;29.20;89.90
71295;DHT22;59080;31.686;73.862;2022-07-29T20:35:50;29.20;90.00
71295;DHT22;59080;31.686;73.862;2022-07-29T20:38:19;29.20;90.10
71295;DHT22;59080;31.686;73.862;2022-07-29T20:40:47;29.20;90.20
71295;DHT22;59080;31.686;73.862;2022-07-29T20:43:17;29.20;90.20
71295;DHT22;59080;31.686;73.862;2022-07-29T20:45:45;29.20;90.20
71295;DHT22;59080;31.686;73.862;2022-07-29T20:48:15;29.20;90.20
71295;DHT22;59080;31.686;73.862;2022-07-29T20:50:42;29.20;90.10
71295;DHT22;59080;31.686;73.862;2022-07-29T20:53:13;29.20;90.10
71295;DHT22;59080;31.686;73.862;2022-07-29T20:55:43;29.20;90.10
71295;DHT22;59080;31.686;73.862;2022-07-29T20:58:11;29.20;90.10
71295;DHT22;59080;31.686;73.862;2022-07-29T21:00:40;29.10;90.20
71295;DHT22;59080;31.686;73.862;2022-07-29T21:03:08;29.10;90.20
71295;DHT22;59080;31.686;73.862;2022-07-29T21:05:37;29.20;90.20
71295;DHT22;59080;31.686;73.862;2022-07-29T21:08:05;29.10;90.20
71295;DHT22;59080;31.686;73.862;2022-07-29T21:10:34;29.10;90.20
71295;DHT22;59080;31.686;73.862;2022-07-29T21:13:01;29.10;90.20
71295;DHT22;59080;31.686;73.862;2022-07-29T21:15:30;29.10;90.20
71295;DHT22;59080;31.686;73.862;2022-07-29T21:17:58;29.10;90.20
71295;DHT22;59080;31.686;73.862;2022-07-29T21:20:29;29.10;90.30
71295;DHT22;59080;31.686;73.862;2022-07-29T21:22:57;29.10;90.20
71295;DHT22;59080;31.686;73.862;2022-07-29T21:25:26;29.10;90.30
71295;DHT22;59080;31.686;73.862;2022-07-29T21:27:54;29.00;90.20
71295;DHT22;59080;31.686;73.862;2022-07-29T21:30:40;29.00;90.30
71295;DHT22;59080;31.686;73.862;2022-07-29T21:33:08;29.10;90.20
71295;DHT22;59080;31.686;73.862;2022-07-29T21:35:37;29.10;90.20
71295;DHT22;59080;31.686;73.862;2022-07-29T21:38:04;29.00;90.20
71295;DHT22;59080;31.686;73.862;2022-07-29T21:40:32;29.10;90.30
71295;DHT22;59080;31.686;73.862;2022-07-29T21:43:00;29.00;90.30
71295;DHT22;59080;31.686;73.862;2022-07-29T21:45:29;29.00;90.30
71295;DHT22;59080;31.686;73.862;2022-07-29T21:47:56;29.10;90.30
71295;DHT22;59080;31.686;73.862;2022-07-29T21:50:25;29.00;90.30
71295;DHT22;59080;31.686;73.862;2022-07-29T21:52:53;29.00;90.30
71295;DHT22;59080;31.686;73.862;2022-07-29T21:55:21;29.00;90.30
71295;DHT22;59080;31.686;73.862;2022-07-29T21:57:50;29.00;90.40
71295;DHT22;59080;31.686;73.862;2022-07-29T22:00:18;29.00;90.40
71295;DHT22;59080;31.686;73.862;2022-07-29T22:02:47;29.00;90.40
71295;DHT22;59080;31.686;73.862;2022-07-29T22:05:15;29.00;90.50
71295;DHT22;59080;31.686;73.862;2022-07-29T22:07:44;29.00;90.50
71295;DHT22;59080;31.686;73.862;2022-07-29T22:10:11;29.00;90.50
71295;DHT22;59080;31.686;73.862;2022-07-29T22:12:39;28.90;90.60
71295;DHT22;59080;31.686;73.862;2022-07-29T22:15:08;28.90;90.60
71295;DHT22;59080;31.686;73.862;2022-07-29T22:17:36;28.90;90.60
71295;DHT22;59080;31.686;73.862;2022-07-29T22:20:05;28.90;90.70
71295;DHT22;59080;31.686;73.862;2022-07-29T22:22:33;28.90;90.60
71295;DHT22;59080;31.686;73.862;2022-07-29T22:25:01;28.80;90.70
71295;DHT22;59080;31.686;73.862;2022-07-29T22:27:29;28.80;90.90
71295;DHT22;59080;31.686;73.862;2022-07-29T22:29:57;28.80;91.00
71295;DHT22;59080;31.686;73.862;2022-07-29T22:32:26;28.80;91.00
71295;DHT22;59080;31.686;73.862;2022-07-29T22:34:53;28.80;91.00
71295;DHT22;59080;31.686;73.862;2022-07-29T22:37:22;28.80;91.00
71295;DHT22;59080;31.686;73.862;2022-07-29T22:39:50;28.80;91.00
71295;DHT22;59080;31.686;73.862;2022-07-29T22:42:17;28.80;91.00
71295;DHT22;59080;31.686;73.862;2022-07-29T22:44:46;28.80;90.90
71295;DHT22;59080;31.686;73.862;2022-07-29T22:47:14;28.80;90.90
71295;DHT22;59080;31.686;73.862;2022-07-29T22:49:42;28.90;90.90
71295;DHT22;59080;31.686;73.862;2022-07-29T22:52:10;28.90;90.80
71295;DHT22;59080;31.686;73.862;2022-07-29T22:54:39;28.80;90.80
71295;DHT22;59080;31.686;73.862;2022-07-29T22:57:39;28.90;90.90
71295;DHT22;59080;31.686;73.862;2022-07-29T23:01:20;28.80;90.90
71295;DHT22;59080;31.686;73.862;2022-07-29T23:04:54;28.90;90.90
71295;DHT22;59080;31.686;73.862;2022-07-29T23:08:05;28.80;90.90
71295;DHT22;59080;31.686;73.862;2022-07-29T23:11:16;28.90;90.90
71295;DHT22;59080;31.686;73.862;2022-07-29T23:14:28;28.80;91.00
71295;DHT22;59080;31.686;73.862;2022-07-29T23:16:56;28.80;91.10
71295;DHT22;59080;31.686;73.862;2022-07-29T23:19:24;28.80;91.10
71295;DHT22;59080;31.686;73.862;2022-07-29T23:21:52;28.80;91.10
71295;DHT22;59080;31.686;73.862;2022-07-29T23:24:20;28.80;91.10
71295;DHT22;59080;31.686;73.862;2022-07-29T23:26:48;28.80;91.00
71295;DHT22;59080;31.686;73.862;2022-07-29T23:29:16;28.70;91.00
71295;DHT22;59080;31.686;73.862;2022-07-29T23:31:45;28.80;91.00
71295;DHT22;59080;31.686;73.862;2022-07-29T23:34:12;28.80;91.00
71295;DHT22;59080;31.686;73.862;2022-07-29T23:36:41;28.70;91.00
71295;DHT22;59080;31.686;73.862;2022-07-29T23:39:09;28.70;91.10
71295;DHT22;59080;31.686;73.862;2022-07-29T23:41:39;28.80;91.20
71295;DHT22;59080;31.686;73.862;2022-07-29T23:44:07;28.70;91.10
71295;DHT22;59080;31.686;73.862;2022-07-29T23:46:35;28.80;91.10
71295;DHT22;59080;31.686;73.862;2022-07-29T23:49:03;28.70;91.20
71295;DHT22;59080;31.686;73.862;2022-07-29T23:51:31;28.70;91.30
71295;DHT22;59080;31.686;73.862;2022-07-29T23:53:58;28.70;91.30
71295;DHT22;59080;31.686;73.862;2022-07-29T23:56:26;28.70;91.30
71295;DHT22;59080;31.686;73.862;2022-07-29T23:58:54;28.70;91.40
